createdAt,value
2018-11-26T00:02:20.880Z,21.10
2018-11-26T00:05:25.004Z,21.00
2018-11-26T00:08:28.995Z,21.00
2018-11-26T00:11:34.424Z,21.00
2018-11-26T00:14:38.458Z,21.00
2018-11-26T00:17:42.400Z,20.90
2018-11-26T00:20:46.503Z,20.90
2018-11-26T00:23:50.447Z,20.90
2018-11-26T00:26:54.442Z,20.90
2018-11-26T00:29:58.428Z,20.80
2018-11-26T00:33:02.475Z,20.80
2018-11-26T00:36:07.127Z,20.80
2018-11-26T00:39:12.235Z,20.80
2018-11-26T00:42:16.223Z,20.80
2018-11-26T00:45:20.259Z,20.80
2018-11-26T00:48:24.252Z,20.70
2018-11-26T00:51:28.196Z,20.70
2018-11-26T00:54:32.179Z,20.60
2018-11-26T00:57:36.222Z,20.60
2018-11-26T01:00:40.318Z,20.60
2018-11-26T01:03:44.339Z,20.60
2018-11-26T01:06:48.645Z,20.60
2018-11-26T01:09:52.592Z,20.60
2018-11-26T01:12:56.566Z,20.50
2018-11-26T01:16:00.531Z,20.50
2018-11-26T01:19:04.496Z,20.50
2018-11-26T01:22:08.439Z,20.40
2018-11-26T01:25:12.527Z,20.40
2018-11-26T01:28:16.467Z,20.40
2018-11-26T01:31:20.352Z,20.50
2018-11-26T01:34:24.299Z,20.40
2018-11-26T01:37:28.272Z,20.40
2018-11-26T01:40:37.479Z,20.30
2018-11-26T01:43:41.420Z,20.30
2018-11-26T01:46:45.363Z,20.30
2018-11-26T01:49:49.347Z,20.30
2018-11-26T01:52:53.262Z,20.30
2018-11-26T01:55:57.171Z,20.20
2018-11-26T01:59:01.080Z,20.20
2018-11-26T02:02:05.099Z,20.20
2018-11-26T02:05:09.113Z,20.20
2018-11-26T02:08:13.028Z,20.20
2018-11-26T02:11:17.039Z,20.20
2018-11-26T02:14:20.956Z,20.10
2018-11-26T02:17:24.916Z,20.10
2018-11-26T02:20:29.767Z,20.10
2018-11-26T02:23:33.715Z,20.10
2018-11-26T02:26:37.621Z,20.00
2018-11-26T02:29:41.644Z,20.10
2018-11-26T02:32:45.547Z,20.00
2018-11-26T02:35:49.564Z,20.00
2018-11-26T02:38:53.656Z,20.00
2018-11-26T02:41:57.588Z,19.90
2018-11-26T02:45:01.510Z,19.90
2018-11-26T02:48:05.515Z,19.90
2018-11-26T02:51:09.423Z,19.90
2018-11-26T02:54:13.294Z,19.90
2018-11-26T02:57:17.248Z,19.80
2018-11-26T03:00:21.163Z,19.80
2018-11-26T03:03:25.176Z,19.80
2018-11-26T03:06:29.439Z,19.80
2018-11-26T03:09:33.412Z,19.80
2018-11-26T03:12:37.817Z,19.80
2018-11-26T03:15:41.744Z,19.70
2018-11-26T03:18:45.660Z,19.70
2018-11-26T03:21:49.675Z,19.70
2018-11-26T03:24:53.580Z,19.70
2018-11-26T03:27:57.496Z,19.60
2018-11-26T03:31:01.405Z,19.60
2018-11-26T03:34:05.454Z,19.60
2018-11-26T03:37:09.440Z,19.60
2018-11-26T03:40:13.967Z,19.60
2018-11-26T03:43:17.876Z,19.60
2018-11-26T03:46:21.795Z,19.60
2018-11-26T03:49:25.749Z,19.60
2018-11-26T03:52:29.719Z,19.50
2018-11-26T03:55:33.623Z,19.50
2018-11-26T03:58:37.522Z,19.50
2018-11-26T04:01:41.483Z,19.50
2018-11-26T04:04:45.460Z,19.40
2018-11-26T04:07:49.376Z,19.40
2018-11-26T04:10:53.403Z,19.40
2018-11-26T04:13:57.303Z,19.40
2018-11-26T04:17:04.839Z,19.40
2018-11-26T04:20:09.323Z,19.30
2018-11-26T04:23:13.235Z,19.40
2018-11-26T04:26:17.149Z,19.30
2018-11-26T04:29:21.056Z,19.30
2018-11-26T04:32:25.662Z,19.30
2018-11-26T04:35:29.702Z,19.30
2018-11-26T04:38:33.801Z,19.20
2018-11-26T04:41:38.140Z,19.20
2018-11-26T04:44:42.889Z,19.20
2018-11-26T04:47:46.888Z,19.20
2018-11-26T04:50:50.924Z,19.20
2018-11-26T04:53:55.716Z,19.20
2018-11-26T04:57:00.661Z,19.20
2018-11-26T05:00:05.972Z,19.10
2018-11-26T05:03:10.843Z,19.10
2018-11-26T05:06:16.205Z,19.10
2018-11-26T05:09:20.855Z,19.10
2018-11-26T05:12:25.160Z,19.10
2018-11-26T05:15:29.748Z,19.00
2018-11-26T05:18:34.500Z,19.00
2018-11-26T05:21:38.923Z,19.00
2018-11-26T05:24:43.344Z,19.00
2018-11-26T05:27:47.449Z,19.00
2018-11-26T05:30:51.670Z,19.00
2018-11-26T05:33:56.440Z,19.00
2018-11-26T05:37:00.328Z,19.00
2018-11-26T05:40:05.396Z,19.00
2018-11-26T05:43:10.320Z,19.10
2018-11-26T05:46:14.328Z,19.10
2018-11-26T05:49:18.437Z,19.10
2018-11-26T05:52:22.596Z,19.10
2018-11-26T05:55:26.755Z,19.20
2018-11-26T05:58:30.979Z,19.20
2018-11-26T06:01:34.997Z,19.20
2018-11-26T06:04:39.403Z,19.30
2018-11-26T06:07:43.475Z,19.30
2018-11-26T06:10:47.741Z,19.40
2018-11-26T06:13:51.668Z,19.40
2018-11-26T06:16:55.965Z,19.40
2018-11-26T06:20:00.876Z,19.50
2018-11-26T06:23:04.961Z,19.50
2018-11-26T06:26:09.521Z,19.50
2018-11-26T06:29:14.065Z,19.60
2018-11-26T06:32:19.267Z,19.60
2018-11-26T06:35:24.201Z,19.60
2018-11-26T06:38:28.997Z,19.70
2018-11-26T06:41:33.972Z,19.70
2018-11-26T06:44:38.558Z,19.70
2018-11-26T06:47:43.117Z,19.70
2018-11-26T06:50:47.276Z,19.70
2018-11-26T06:53:52.081Z,19.70
2018-11-26T06:56:57.081Z,19.80
2018-11-26T07:00:01.437Z,19.80
2018-11-26T07:03:05.628Z,19.80
2018-11-26T07:06:10.684Z,19.80
2018-11-26T07:09:16.309Z,19.80
2018-11-26T07:12:20.696Z,19.80
2018-11-26T07:15:25.105Z,19.90
2018-11-26T07:18:29.733Z,19.90
2018-11-26T07:21:34.104Z,19.90
2018-11-26T07:24:38.693Z,19.90
2018-11-26T07:27:44.311Z,20.00
2018-11-26T07:30:49.734Z,20.00
2018-11-26T07:33:53.996Z,20.00
2018-11-26T07:36:57.953Z,20.00
2018-11-26T07:40:02.225Z,20.00
2018-11-26T07:43:10.305Z,20.00
2018-11-26T07:46:14.112Z,20.10
2018-11-26T07:52:43.430Z,20.10
2018-11-26T07:55:47.235Z,20.10
2018-11-26T07:58:50.993Z,20.10
2018-11-26T08:01:54.944Z,20.20
2018-11-26T08:05:00.629Z,20.20
2018-11-26T08:08:04.667Z,20.20
2018-11-26T08:11:08.745Z,20.20
2018-11-26T08:14:13.815Z,20.20
2018-11-26T08:17:17.593Z,20.20
2018-11-26T08:20:22.869Z,20.30
2018-11-26T08:23:26.649Z,20.30
2018-11-26T08:26:30.501Z,20.30
2018-11-26T08:29:34.267Z,20.30
2018-11-26T08:32:39.141Z,20.30
2018-11-26T08:35:43.961Z,20.30
2018-11-26T08:38:51.945Z,20.30
2018-11-26T08:41:56.044Z,20.30
2018-11-26T08:45:04.989Z,20.40
2018-11-26T08:48:15.970Z,20.40
2018-11-26T08:51:20.458Z,20.40
2018-11-26T08:54:24.851Z,20.40
2018-11-26T08:57:30.939Z,20.40
2018-11-26T09:00:35.803Z,20.40
2018-11-26T09:03:45.133Z,20.40
2018-11-26T09:06:49.877Z,20.40
2018-11-26T09:09:55.585Z,20.30
2018-11-26T09:15:57.024Z,20.40
2018-11-26T09:19:01.079Z,24.30
2018-11-26T09:22:05.588Z,26.00
2018-11-26T09:25:12.491Z,26.90
2018-11-26T09:28:16.560Z,27.70
2018-11-26T09:31:20.580Z,28.40
2018-11-26T09:34:24.885Z,29.60
2018-11-26T09:37:28.992Z,31.00
2018-11-26T09:40:33.104Z,31.90
2018-11-26T09:43:37.384Z,32.40
2018-11-26T09:46:41.304Z,32.60
2018-11-26T09:49:45.412Z,32.70
2018-11-26T09:52:49.384Z,32.80
2018-11-26T09:55:53.777Z,33.00
2018-11-26T09:58:59.086Z,33.20
2018-11-26T10:02:03.860Z,33.40
2018-11-26T10:05:10.344Z,33.80
2018-11-26T10:08:14.567Z,34.20
2018-11-26T10:11:18.721Z,34.50
2018-11-26T10:14:22.801Z,34.90
2018-11-26T10:17:26.834Z,35.10
2018-11-26T10:20:30.734Z,35.60
2018-11-26T10:23:34.995Z,35.90
2018-11-26T10:26:39.102Z,36.10
2018-11-26T10:29:43.008Z,36.30
2018-11-26T10:32:47.608Z,36.40
2018-11-26T10:35:52.176Z,36.40
2018-11-26T10:38:56.277Z,36.10
2018-11-26T10:42:01.092Z,35.70
2018-11-26T10:45:04.687Z,35.10
2018-11-26T10:48:08.823Z,34.50
2018-11-26T10:51:13.092Z,34.00
2018-11-26T10:54:17.650Z,33.70
2018-11-26T10:57:22.012Z,33.60
2018-11-26T11:00:31.315Z,33.70
2018-11-26T11:03:35.463Z,33.90
2018-11-26T11:06:39.539Z,34.20
2018-11-26T11:09:43.587Z,34.60
2018-11-26T11:12:47.673Z,34.90
2018-11-26T11:15:51.708Z,35.10
2018-11-26T11:18:55.739Z,35.30
2018-11-26T11:22:00.327Z,35.60
2018-11-26T11:25:04.651Z,35.80
2018-11-26T11:28:08.657Z,36.10
2018-11-26T11:31:12.649Z,36.20
2018-11-26T11:34:16.593Z,36.40
2018-11-26T11:37:20.745Z,36.40
2018-11-26T11:40:26.716Z,36.50
2018-11-26T11:43:30.687Z,36.40
2018-11-26T11:46:35.725Z,36.20
2018-11-26T11:49:39.740Z,36.00
2018-11-26T11:52:43.901Z,35.80
2018-11-26T11:55:47.959Z,35.60
2018-11-26T11:58:51.982Z,35.60
2018-11-26T12:01:56.113Z,35.30
2018-11-26T12:05:00.313Z,35.00
2018-11-26T12:08:04.328Z,35.00
2018-11-26T12:11:09.760Z,34.90
2018-11-26T12:14:14.506Z,35.00
2018-11-26T12:17:19.228Z,35.00
2018-11-26T12:20:24.137Z,34.90
2018-11-26T12:23:29.024Z,34.80
2018-11-26T12:26:33.571Z,34.70
2018-11-26T12:29:37.548Z,34.60
2018-11-26T12:32:41.590Z,34.70
2018-11-26T12:35:45.577Z,34.60
2018-11-26T12:38:49.585Z,34.70
2018-11-26T12:41:53.827Z,34.70
2018-11-26T12:44:57.826Z,34.60
2018-11-26T12:48:02.370Z,34.60
2018-11-26T12:51:06.565Z,34.60
2018-11-26T12:54:10.681Z,34.50
2018-11-26T12:57:14.710Z,34.40
2018-11-26T13:00:27.582Z,34.40
2018-11-26T13:03:31.544Z,34.40
2018-11-26T13:06:35.549Z,34.40
2018-11-26T13:09:39.689Z,34.30
2018-11-26T13:12:43.957Z,34.20
2018-11-26T13:15:47.900Z,33.90
2018-11-26T13:18:51.920Z,33.90
2018-11-26T13:21:56.030Z,33.90
2018-11-26T13:25:01.081Z,34.00
2018-11-26T13:28:05.484Z,34.00
2018-11-26T13:31:09.397Z,34.00
2018-11-26T13:34:13.336Z,33.70
2018-11-26T13:37:17.249Z,33.50
2018-11-26T13:40:21.422Z,33.60
2018-11-26T13:43:25.415Z,33.60
2018-11-26T13:46:29.392Z,33.20
2018-11-26T13:49:33.365Z,33.00
2018-11-26T13:52:37.417Z,32.90
2018-11-26T13:55:41.338Z,32.90
2018-11-26T13:58:45.613Z,33.10
2018-11-26T14:01:49.566Z,33.10
2018-11-26T14:04:53.481Z,33.30
2018-11-26T14:07:57.861Z,33.50
2018-11-26T14:11:01.818Z,33.80
2018-11-26T14:14:06.666Z,33.90
2018-11-26T14:17:10.693Z,34.10
2018-11-26T14:20:15.754Z,34.20
2018-11-26T14:23:19.714Z,34.30
2018-11-26T14:26:23.735Z,34.30
2018-11-26T14:29:27.641Z,34.30
2018-11-26T14:32:31.656Z,34.30
2018-11-26T14:35:35.576Z,34.20
2018-11-26T14:38:39.692Z,34.00
2018-11-26T14:41:43.697Z,33.80
2018-11-26T14:44:47.622Z,33.60
2018-11-26T14:47:51.625Z,33.50
2018-11-26T14:50:55.550Z,33.40
2018-11-26T14:53:59.561Z,33.40
2018-11-26T14:57:03.465Z,33.60
2018-11-26T15:00:10.721Z,33.80
2018-11-26T15:03:14.669Z,34.10
2018-11-26T15:06:18.610Z,34.40
2018-11-26T15:09:22.613Z,34.70
2018-11-26T15:12:26.504Z,34.80
2018-11-26T15:15:30.423Z,34.90
2018-11-26T15:18:34.537Z,34.90
2018-11-26T15:21:38.453Z,35.10
2018-11-26T15:24:42.465Z,35.10
2018-11-26T15:27:46.581Z,34.40
2018-11-26T15:30:50.593Z,33.80
2018-11-26T15:33:55.162Z,33.80
2018-11-26T15:36:59.971Z,34.20
2018-11-26T15:40:04.121Z,34.60
2018-11-26T15:43:08.591Z,34.70
2018-11-26T15:46:12.621Z,34.80
2018-11-26T15:49:17.245Z,34.80
2018-11-26T15:52:21.453Z,34.60
2018-11-26T15:55:25.486Z,34.50
2018-11-26T15:58:29.500Z,34.40
2018-11-26T16:01:33.398Z,34.40
2018-11-26T16:04:37.409Z,34.40
2018-11-26T16:07:41.857Z,34.40
2018-11-26T16:10:45.849Z,34.40
2018-11-26T16:13:49.913Z,34.40
2018-11-26T16:16:54.198Z,34.40
2018-11-26T16:19:58.593Z,34.40
2018-11-26T16:23:02.601Z,34.40
2018-11-26T16:26:06.842Z,34.40
2018-11-26T16:29:10.879Z,34.40
2018-11-26T16:32:14.882Z,34.30
2018-11-26T16:35:24.240Z,34.30
2018-11-26T16:38:28.225Z,34.20
2018-11-26T16:41:32.385Z,34.10
2018-11-26T16:44:36.476Z,33.80
2018-11-26T16:47:40.588Z,33.60
2018-11-26T16:50:44.708Z,33.50
2018-11-26T16:53:48.755Z,33.40
2018-11-26T16:56:52.928Z,33.40
2018-11-26T16:59:56.957Z,33.40
2018-11-26T17:03:01.952Z,33.40
2018-11-26T17:06:06.501Z,33.50
2018-11-26T17:09:11.044Z,33.50
2018-11-26T17:12:15.051Z,33.70
2018-11-26T17:15:19.137Z,33.60
2018-11-26T17:18:23.069Z,33.40
2018-11-26T17:21:27.620Z,33.20
2018-11-26T17:24:31.616Z,33.00
2018-11-26T17:27:35.629Z,32.90
2018-11-26T17:30:40.333Z,32.80
2018-11-26T17:33:44.415Z,32.80
2018-11-26T17:36:48.396Z,33.00
2018-11-26T17:39:52.652Z,33.10
2018-11-26T17:42:56.641Z,33.20
2018-11-26T17:46:00.622Z,33.40
2018-11-26T17:49:04.580Z,33.50
2018-11-26T17:52:08.609Z,33.70
2018-11-26T17:55:12.892Z,33.80
2018-11-26T17:58:17.220Z,34.00
2018-11-26T18:01:26.849Z,34.20
2018-11-26T18:04:30.989Z,34.40
2018-11-26T18:07:34.990Z,34.50
2018-11-26T18:10:38.999Z,34.60
2018-11-26T18:13:43.149Z,34.70
2018-11-26T18:16:47.025Z,34.70
2018-11-26T18:19:51.070Z,34.70
2018-11-26T18:22:55.567Z,34.70
2018-11-26T18:25:59.577Z,34.70
2018-11-26T18:29:03.493Z,34.80
2018-11-26T18:32:07.613Z,34.70
2018-11-26T18:35:11.614Z,34.60
2018-11-26T18:38:15.647Z,34.80
2018-11-26T18:41:20.105Z,34.70
2018-11-26T18:44:24.077Z,34.60
2018-11-26T18:47:28.121Z,34.60
2018-11-26T18:50:32.180Z,34.50
2018-11-26T18:53:36.237Z,34.40
2018-11-26T18:56:40.849Z,34.40
2018-11-26T18:59:44.936Z,34.40
2018-11-26T19:02:48.773Z,34.40
2018-11-26T19:05:54.644Z,34.50
2018-11-26T19:08:59.013Z,34.50
2018-11-26T19:12:04.153Z,34.60
2018-11-26T19:15:11.183Z,34.80
2018-11-26T19:18:23.628Z,34.70
2018-11-26T19:21:27.561Z,35.00
2018-11-26T19:24:31.572Z,35.20
2018-11-26T19:27:35.645Z,35.20
2018-11-26T19:30:39.608Z,35.10
2018-11-26T19:33:43.687Z,35.00
2018-11-26T19:36:47.734Z,34.70
2018-11-26T19:39:51.704Z,34.60
2018-11-26T19:42:55.656Z,34.60
2018-11-26T19:45:59.640Z,34.90
2018-11-26T19:49:03.665Z,35.10
2018-11-26T19:52:07.664Z,35.20
2018-11-26T19:55:15.799Z,34.90
2018-11-26T19:58:19.901Z,35.00
2018-11-26T20:01:24.893Z,35.00
2018-11-26T20:04:38.249Z,35.00
2018-11-26T20:07:42.404Z,35.00
2018-11-26T20:10:46.397Z,34.90
2018-11-26T20:13:50.425Z,35.00
2018-11-26T20:16:54.389Z,35.00
2018-11-26T20:19:58.437Z,34.90
2018-11-26T20:23:02.520Z,34.90
2018-11-26T20:26:07.435Z,34.80
2018-11-26T20:29:11.501Z,34.60
2018-11-26T20:32:15.621Z,34.50
2018-11-26T20:35:19.767Z,34.40
2018-11-26T20:38:23.942Z,33.90
2018-11-26T20:41:29.535Z,33.30
2018-11-26T20:44:36.069Z,32.70
2018-11-26T20:47:41.729Z,32.00
2018-11-26T20:50:49.952Z,31.40
2018-11-26T20:53:55.756Z,31.20
2018-11-26T20:57:00.496Z,30.90
2018-11-26T21:00:07.176Z,30.70
2018-11-26T21:03:12.656Z,30.30
2018-11-26T21:06:17.323Z,29.60
2018-11-26T21:09:22.663Z,28.90
2018-11-26T21:12:27.878Z,28.30
2018-11-26T21:15:32.998Z,27.70
2018-11-26T21:18:37.749Z,27.20
2018-11-26T21:21:43.013Z,26.70
2018-11-26T21:24:48.188Z,26.30
2018-11-26T21:27:53.210Z,26.00
2018-11-26T21:30:58.451Z,25.70
2018-11-26T21:34:03.935Z,25.50
2018-11-26T21:37:09.425Z,25.40
2018-11-26T21:40:20.339Z,25.30
2018-11-26T21:43:21.165Z,25.00
2018-11-26T21:46:26.030Z,24.90
2018-11-26T21:49:30.149Z,24.80
2018-11-26T21:52:34.208Z,24.70
2018-11-26T21:55:38.300Z,24.50
2018-11-26T21:58:42.773Z,24.40
2018-11-26T22:01:46.736Z,24.30
2018-11-26T22:04:51.073Z,24.20
2018-11-26T22:07:55.185Z,24.10
2018-11-26T22:11:01.051Z,24.00
2018-11-26T22:14:06.146Z,23.90
2018-11-26T22:17:11.326Z,23.90
2018-11-26T22:20:18.686Z,23.70
2018-11-26T22:23:23.648Z,23.60
2018-11-26T22:26:28.740Z,23.50
2018-11-26T22:29:33.516Z,23.50
2018-11-26T22:32:38.475Z,23.40
2018-11-26T22:35:43.865Z,23.40
2018-11-26T22:38:48.943Z,23.30
2018-11-26T22:41:54.351Z,23.20
2018-11-26T22:44:59.286Z,23.20
2018-11-26T22:48:10.077Z,23.20
2018-11-26T22:51:15.139Z,23.10
2018-11-26T22:54:19.673Z,23.00
2018-11-26T22:57:23.948Z,23.00
2018-11-26T23:00:37.668Z,22.80
2018-11-26T23:03:42.342Z,22.80
2018-11-26T23:06:46.352Z,22.70
2018-11-26T23:09:50.434Z,22.70
2018-11-26T23:12:54.572Z,22.60
2018-11-26T23:15:58.725Z,22.50
2018-11-26T23:19:02.601Z,22.50
2018-11-26T23:22:07.229Z,22.50
2018-11-26T23:25:13.197Z,22.40
2018-11-26T23:28:17.423Z,22.40
2018-11-26T23:31:21.536Z,22.40
2018-11-26T23:34:25.557Z,22.40
2018-11-26T23:37:30.037Z,22.40
2018-11-26T23:40:34.241Z,22.40
2018-11-26T23:43:38.143Z,22.30
2018-11-26T23:46:42.221Z,22.30
2018-11-26T23:49:46.757Z,22.20
2018-11-26T23:52:50.757Z,22.10
2018-11-26T23:55:56.226Z,22.10
2018-11-26T23:59:00.313Z,22.10
